createdAt,value
2018-06-27T00:01:17.814Z,4.40
2018-06-27T00:03:46.456Z,2.93
2018-06-27T00:06:16.543Z,3.40
2018-06-27T00:08:45.606Z,3.53
2018-06-27T00:11:15.254Z,3.40
2018-06-27T00:13:43.852Z,3.73
2018-06-27T00:16:12.511Z,3.40
2018-06-27T00:18:40.778Z,3.43
2018-06-27T00:21:09.563Z,4.00
2018-06-27T00:23:38.103Z,3.97
2018-06-27T00:26:06.723Z,3.40
2018-06-27T00:28:35.240Z,3.03
2018-06-27T00:31:03.795Z,3.43
2018-06-27T00:33:32.377Z,3.27
2018-06-27T00:36:00.885Z,3.27
2018-06-27T00:38:29.186Z,3.10
2018-06-27T00:40:57.734Z,3.73
2018-06-27T00:43:26.045Z,4.67
2018-06-27T00:45:54.616Z,4.30
2018-06-27T00:48:23.155Z,3.60
2018-06-27T00:50:51.470Z,3.47
2018-06-27T00:53:20.012Z,3.30
2018-06-27T00:55:48.560Z,3.30
2018-06-27T00:58:17.183Z,3.77
2018-06-27T01:00:45.832Z,5.37
2018-06-27T01:03:14.817Z,4.13
2018-06-27T01:05:43.391Z,3.43
2018-06-27T01:08:11.931Z,3.87
2018-06-27T01:10:40.625Z,4.07
2018-06-27T01:13:09.095Z,3.90
2018-06-27T01:15:37.652Z,5.30
2018-06-27T01:18:06.266Z,5.33
2018-06-27T01:20:34.797Z,3.60
2018-06-27T01:23:03.356Z,5.03
2018-06-27T01:25:31.910Z,3.73
2018-06-27T01:28:00.472Z,4.63
2018-06-27T01:30:29.023Z,3.90
2018-06-27T01:32:57.562Z,3.90
2018-06-27T01:35:25.850Z,5.23
2018-06-27T01:37:54.085Z,5.87
2018-06-27T01:40:22.718Z,8.20
2018-06-27T01:42:51.289Z,6.17
2018-06-27T01:45:19.855Z,5.77
2018-06-27T01:47:48.359Z,5.03
2018-06-27T01:50:17.940Z,7.13
2018-06-27T01:52:46.499Z,5.13
2018-06-27T01:55:16.247Z,8.63
2018-06-27T01:57:45.450Z,3.67
2018-06-27T02:00:13.763Z,3.97
2018-06-27T02:02:42.295Z,3.97
2018-06-27T02:05:10.848Z,3.87
2018-06-27T02:07:39.414Z,4.87
2018-06-27T02:10:08.009Z,5.20
2018-06-27T02:12:36.540Z,5.57
2018-06-27T02:15:04.874Z,5.47
2018-06-27T02:17:33.457Z,6.87
2018-06-27T02:20:01.956Z,8.17
2018-06-27T02:22:30.520Z,4.73
2018-06-27T02:24:59.036Z,5.53
2018-06-27T02:27:27.638Z,6.60
2018-06-27T02:29:56.158Z,6.77
2018-06-27T02:32:24.764Z,5.93
2018-06-27T02:34:53.277Z,7.63
2018-06-27T02:37:21.836Z,7.60
2018-06-27T02:39:50.407Z,5.83
2018-06-27T02:42:18.979Z,6.23
2018-06-27T02:44:47.504Z,8.77
2018-06-27T02:47:17.362Z,6.73
2018-06-27T02:49:47.036Z,6.50
2018-06-27T02:52:16.540Z,7.40
2018-06-27T02:54:44.889Z,7.90
2018-06-27T02:57:13.459Z,9.97
2018-06-27T02:59:42.019Z,7.37
2018-06-27T03:02:10.579Z,8.93
2018-06-27T03:04:39.158Z,6.70
2018-06-27T03:07:07.374Z,6.30
2018-06-27T03:09:36.023Z,6.70
2018-06-27T03:12:04.580Z,6.77
2018-06-27T03:14:33.152Z,9.27
2018-06-27T03:17:01.734Z,6.20
2018-06-27T03:19:30.322Z,7.43
2018-06-27T03:21:58.876Z,8.73
2018-06-27T03:24:27.457Z,8.43
2018-06-27T03:26:55.996Z,6.90
2018-06-27T03:29:24.583Z,8.30
2018-06-27T03:31:53.255Z,6.93
2018-06-27T03:34:23.260Z,7.77
2018-06-27T03:36:52.829Z,8.50
2018-06-27T03:39:23.075Z,9.83
2018-06-27T03:41:52.346Z,9.77
2018-06-27T03:44:21.568Z,7.23
2018-06-27T03:46:51.640Z,8.40
2018-06-27T03:49:20.803Z,7.47
2018-06-27T03:51:49.371Z,8.93
2018-06-27T03:54:17.898Z,8.07
2018-06-27T03:56:46.510Z,7.53
2018-06-27T03:59:15.040Z,8.80
2018-06-27T04:01:43.564Z,6.93
2018-06-27T04:04:11.834Z,6.63
2018-06-27T04:06:40.351Z,8.03
2018-06-27T04:09:10.313Z,8.77
2018-06-27T04:11:39.272Z,6.40
2018-06-27T04:14:08.993Z,7.97
2018-06-27T04:16:37.590Z,7.73
2018-06-27T04:19:06.154Z,7.97
2018-06-27T04:21:34.703Z,7.57
2018-06-27T04:24:03.271Z,7.83
2018-06-27T04:26:31.510Z,9.43
2018-06-27T04:29:00.075Z,8.97
2018-06-27T04:31:28.647Z,9.70
2018-06-27T04:33:57.252Z,8.77
2018-06-27T04:36:26.509Z,8.47
2018-06-27T04:38:55.084Z,5.93
2018-06-27T04:41:23.830Z,6.23
2018-06-27T04:43:52.535Z,7.90
2018-06-27T04:46:20.825Z,5.67
2018-06-27T04:48:49.103Z,5.87
2018-06-27T04:51:17.659Z,7.97
2018-06-27T04:53:46.169Z,7.37
2018-06-27T04:56:15.427Z,4.93
2018-06-27T04:58:44.340Z,5.83
2018-06-27T05:01:12.791Z,7.63
2018-06-27T05:03:41.577Z,5.30
2018-06-27T05:06:10.267Z,6.00
2018-06-27T05:08:38.995Z,4.27
2018-06-27T05:11:07.298Z,5.13
2018-06-27T05:13:35.933Z,6.80
2018-06-27T05:16:04.689Z,4.13
2018-06-27T05:18:33.180Z,4.90
2018-06-27T05:21:01.768Z,4.57
2018-06-27T05:23:30.294Z,4.00
2018-06-27T05:25:58.891Z,3.73
2018-06-27T05:28:27.444Z,4.33
2018-06-27T05:30:55.755Z,3.43
2018-06-27T05:33:24.311Z,4.93
2018-06-27T05:35:54.352Z,3.40
2018-06-27T05:38:23.577Z,3.37
2018-06-27T05:40:52.199Z,4.43
2018-06-27T05:43:21.157Z,3.93
2018-06-27T05:45:49.881Z,3.23
2018-06-27T05:48:18.178Z,3.67
2018-06-27T05:50:46.759Z,3.37
2018-06-27T05:53:15.300Z,2.73
2018-06-27T05:55:43.872Z,3.67
2018-06-27T05:58:12.510Z,4.33
2018-06-27T06:00:41.231Z,3.97
2018-06-27T06:03:09.757Z,2.83
2018-06-27T06:05:38.059Z,3.13
2018-06-27T06:08:11.168Z,4.30
2018-06-27T06:10:39.768Z,5.80
2018-06-27T06:13:08.319Z,2.97
2018-06-27T06:15:36.974Z,2.33
2018-06-27T06:18:05.337Z,3.57
2018-06-27T06:20:33.955Z,3.47
2018-06-27T06:23:02.619Z,2.53
2018-06-27T06:25:31.215Z,1.90
2018-06-27T06:27:59.578Z,4.70
2018-06-27T06:30:27.882Z,3.80
2018-06-27T06:32:56.475Z,3.13
2018-06-27T06:35:26.131Z,2.40
2018-06-27T06:37:54.762Z,3.70
2018-06-27T06:40:23.983Z,2.23
2018-06-27T06:42:53.317Z,2.70
2018-06-27T06:45:22.632Z,2.80
2018-06-27T06:47:51.595Z,4.77
2018-06-27T06:50:20.311Z,3.33
2018-06-27T06:52:48.880Z,2.73
2018-06-27T06:55:17.501Z,3.63
2018-06-27T06:57:46.061Z,1.87
2018-06-27T07:00:14.616Z,3.13
2018-06-27T07:02:44.313Z,3.37
2018-06-27T07:05:12.882Z,1.53
2018-06-27T07:07:41.526Z,1.73
2018-06-27T07:10:09.767Z,2.53
2018-06-27T07:12:38.320Z,1.93
2018-06-27T07:15:06.926Z,7.13
2018-06-27T07:17:35.606Z,2.23
2018-06-27T07:20:04.303Z,2.63
2018-06-27T07:22:32.899Z,4.20
2018-06-27T07:25:01.597Z,1.80
2018-06-27T07:27:30.143Z,2.83
2018-06-27T07:29:59.563Z,3.83
2018-06-27T07:32:28.176Z,1.60
2018-06-27T07:34:56.786Z,1.77
2018-06-27T07:37:25.413Z,1.73
2018-06-27T07:39:54.040Z,1.40
2018-06-27T07:42:22.622Z,1.83
2018-06-27T07:44:52.219Z,1.83
2018-06-27T07:47:21.891Z,1.67
2018-06-27T07:49:51.111Z,3.17
2018-06-27T07:52:20.877Z,1.30
2018-06-27T07:54:49.146Z,2.13
2018-06-27T07:57:18.370Z,4.90
2018-06-27T07:59:46.991Z,5.40
2018-06-27T08:02:15.630Z,2.10
2018-06-27T08:04:44.256Z,1.80
2018-06-27T08:07:12.875Z,2.87
2018-06-27T08:09:45.741Z,1.60
2018-06-27T08:12:18.761Z,3.10
2018-06-27T08:14:47.687Z,1.50
2018-06-27T08:17:17.681Z,1.60
2018-06-27T08:19:46.607Z,4.30
2018-06-27T08:22:16.545Z,2.63
2018-06-27T08:24:45.971Z,1.77
2018-06-27T08:27:15.554Z,1.40
2018-06-27T08:29:44.648Z,2.03
2018-06-27T08:32:13.921Z,2.57
2018-06-27T08:34:42.593Z,3.23
2018-06-27T08:37:11.899Z,2.63
2018-06-27T08:39:40.613Z,1.70
2018-06-27T08:42:09.325Z,2.20
2018-06-27T08:44:38.116Z,2.17
2018-06-27T08:47:06.836Z,1.80
2018-06-27T08:49:35.514Z,2.20
2018-06-27T08:52:04.298Z,2.53
2018-06-27T08:54:37.236Z,1.90
2018-06-27T08:57:06.037Z,1.60
2018-06-27T08:59:34.650Z,1.50
2018-06-27T09:02:03.065Z,1.67
2018-06-27T09:04:31.776Z,1.30
2018-06-27T09:07:00.852Z,2.40
2018-06-27T09:09:30.035Z,1.90
2018-06-27T09:11:58.921Z,4.53
2018-06-27T09:14:27.997Z,2.73
2018-06-27T09:16:56.909Z,1.90
2018-06-27T09:19:25.532Z,2.63
2018-06-27T09:21:54.502Z,2.43
2018-06-27T09:24:23.250Z,2.07
2018-06-27T09:26:52.765Z,2.03
2018-06-27T09:29:22.128Z,2.37
2018-06-27T09:31:51.452Z,1.60
2018-06-27T09:34:20.606Z,1.73
2018-06-27T09:36:49.445Z,4.47
2018-06-27T09:39:18.325Z,1.63
2018-06-27T09:41:47.237Z,3.80
2018-06-27T09:44:16.213Z,2.77
2018-06-27T09:46:45.078Z,1.93
2018-06-27T09:49:13.503Z,1.97
2018-06-27T09:51:42.705Z,1.87
2018-06-27T09:54:11.575Z,3.27
2018-06-27T09:56:41.329Z,1.60
2018-06-27T09:59:11.152Z,1.37
2018-06-27T10:01:40.109Z,1.10
2018-06-27T10:04:08.882Z,2.17
2018-06-27T10:06:38.128Z,2.83
2018-06-27T10:09:10.132Z,1.30
2018-06-27T10:11:39.424Z,1.73
2018-06-27T10:14:08.227Z,1.40
2018-06-27T10:16:37.324Z,1.67
2018-06-27T10:19:06.023Z,2.57
2018-06-27T10:21:34.844Z,1.63
2018-06-27T10:24:03.958Z,1.70
2018-06-27T10:26:32.785Z,1.37
2018-06-27T10:29:01.828Z,3.43
2018-06-27T10:31:30.873Z,1.30
2018-06-27T10:33:59.743Z,1.33
2018-06-27T10:36:28.122Z,2.23
2018-06-27T10:38:56.931Z,1.50
2018-06-27T10:41:27.299Z,1.20
2018-06-27T10:43:56.300Z,2.93
2018-06-27T10:46:25.256Z,2.77
2018-06-27T10:48:54.918Z,1.63
2018-06-27T10:51:24.188Z,3.57
2018-06-27T10:53:53.197Z,1.67
2018-06-27T10:56:22.033Z,1.83
2018-06-27T10:58:51.980Z,1.47
2018-06-27T11:01:21.336Z,1.50
2018-06-27T11:03:50.871Z,1.67
2018-06-27T11:06:20.748Z,1.27
2018-06-27T11:08:49.733Z,1.40
2018-06-27T11:11:18.301Z,1.60
2018-06-27T11:13:47.392Z,1.83
2018-06-27T11:16:16.561Z,1.50
2018-06-27T11:18:45.524Z,1.60
2018-06-27T11:21:14.272Z,2.53
2018-06-27T11:23:43.216Z,1.47
2018-06-27T11:26:12.496Z,2.40
2018-06-27T11:28:41.641Z,1.57
2018-06-27T11:31:12.670Z,1.63
2018-06-27T11:33:41.655Z,3.13
2018-06-27T11:36:10.599Z,1.40
2018-06-27T11:38:39.216Z,2.03
2018-06-27T11:41:07.913Z,1.30
2018-06-27T11:43:36.628Z,1.87
2018-06-27T11:46:05.831Z,1.60
2018-06-27T11:48:34.835Z,1.87
2018-06-27T11:51:03.414Z,1.50
2018-06-27T11:53:32.631Z,1.50
2018-06-27T11:56:01.664Z,2.23
2018-06-27T11:58:44.941Z,2.53
2018-06-27T12:01:14.573Z,1.60
2018-06-27T12:03:43.389Z,1.80
2018-06-27T12:06:12.071Z,2.13
2018-06-27T12:08:40.631Z,1.97
2018-06-27T12:11:09.019Z,1.60
2018-06-27T12:13:37.670Z,3.67
2018-06-27T12:16:06.344Z,1.50
2018-06-27T12:18:34.938Z,2.40
2018-06-27T12:21:03.508Z,1.67
2018-06-27T12:23:32.073Z,1.30
2018-06-27T12:26:00.790Z,1.60
2018-06-27T12:28:29.666Z,1.80
2018-06-27T12:31:00.050Z,1.83
2018-06-27T12:33:28.703Z,1.50
2018-06-27T12:35:57.287Z,1.73
2018-06-27T12:38:25.736Z,1.67
2018-06-27T12:40:54.317Z,2.60
2018-06-27T12:43:23.564Z,1.50
2018-06-27T12:45:52.509Z,2.00
2018-06-27T12:48:21.588Z,2.90
2018-06-27T12:50:50.237Z,2.10
2018-06-27T12:53:18.531Z,1.60
2018-06-27T12:55:47.244Z,1.70
2018-06-27T12:58:15.793Z,2.50
2018-06-27T13:00:44.452Z,1.73
2018-06-27T13:03:12.757Z,1.67
2018-06-27T13:05:41.476Z,1.80
2018-06-27T13:08:10.055Z,4.97
2018-06-27T13:10:38.644Z,3.60
2018-06-27T13:13:07.209Z,4.30
2018-06-27T13:15:35.811Z,1.90
2018-06-27T13:18:04.697Z,1.80
2018-06-27T13:20:33.286Z,2.33
2018-06-27T13:23:01.845Z,1.73
2018-06-27T13:25:30.440Z,1.63
2018-06-27T13:27:59.075Z,1.90
2018-06-27T13:30:27.669Z,2.03
2018-06-27T13:32:56.239Z,1.80
2018-06-27T13:35:25.027Z,1.60
2018-06-27T13:37:54.360Z,2.00
2018-06-27T13:40:23.375Z,1.53
2018-06-27T13:42:52.993Z,1.60
2018-06-27T13:45:21.957Z,1.80
2018-06-27T13:47:50.618Z,1.72
2018-06-27T13:50:19.253Z,1.67
2018-06-27T13:52:47.876Z,1.72
2018-06-27T13:55:16.288Z,2.20
2018-06-27T13:57:44.964Z,1.57
2018-06-27T14:00:13.735Z,1.82
2018-06-27T14:02:42.360Z,1.60
2018-06-27T14:05:10.994Z,1.70
2018-06-27T14:07:39.296Z,2.30
2018-06-27T14:10:07.976Z,1.80
2018-06-27T14:12:36.627Z,2.87
2018-06-27T14:15:05.376Z,1.90
2018-06-27T14:17:33.961Z,1.87
2018-06-27T14:20:02.719Z,2.33
2018-06-27T14:22:31.296Z,2.42
2018-06-27T14:24:59.945Z,2.52
2018-06-27T14:27:29.013Z,2.08
2018-06-27T14:29:57.620Z,1.77
2018-06-27T14:32:26.307Z,1.53
2018-06-27T14:34:55.697Z,1.53
2018-06-27T14:37:25.597Z,1.57
2018-06-27T14:39:55.160Z,1.73
2018-06-27T14:42:24.935Z,1.50
2018-06-27T14:44:54.800Z,1.23
2018-06-27T14:47:24.116Z,1.57
2018-06-27T14:49:53.572Z,2.50
2018-06-27T14:52:23.299Z,2.07
2018-06-27T14:54:53.245Z,1.97
2018-06-27T14:57:22.367Z,2.27
2018-06-27T14:59:50.987Z,1.90
2018-06-27T15:02:19.631Z,1.60
2018-06-27T15:04:48.333Z,1.43
2018-06-27T15:07:17.000Z,2.97
2018-06-27T15:09:45.708Z,1.63
2018-06-27T15:12:14.321Z,1.70
2018-06-27T15:14:42.862Z,1.67
2018-06-27T15:17:11.542Z,1.70
2018-06-27T15:19:40.245Z,1.60
2018-06-27T15:22:08.903Z,1.60
2018-06-27T15:24:37.449Z,2.50
2018-06-27T15:27:06.093Z,1.70
2018-06-27T15:29:34.700Z,2.13
2018-06-27T15:32:03.322Z,2.47
2018-06-27T15:34:31.955Z,2.90
2018-06-27T15:37:00.547Z,1.80
2018-06-27T15:39:28.984Z,3.13
2018-06-27T15:41:57.530Z,1.53
2018-06-27T15:44:26.258Z,1.80
2018-06-27T15:46:55.013Z,3.50
2018-06-27T15:49:23.720Z,4.50
2018-06-27T15:51:52.973Z,3.80
2018-06-27T15:54:21.316Z,1.90
2018-06-27T15:56:49.966Z,2.63
2018-06-27T15:59:18.573Z,1.70
2018-06-27T16:01:47.205Z,1.90
2018-06-27T16:04:15.508Z,1.90
2018-06-27T16:06:44.087Z,1.70
2018-06-27T16:09:12.726Z,3.13
2018-06-27T16:11:41.471Z,1.63
2018-06-27T16:14:10.045Z,2.63
2018-06-27T16:16:38.728Z,1.73
2018-06-27T16:19:07.374Z,1.43
2018-06-27T16:21:36.012Z,1.43
2018-06-27T16:24:04.836Z,2.10
2018-06-27T16:26:33.475Z,2.83
2018-06-27T16:29:02.107Z,2.77
2018-06-27T16:31:30.789Z,1.60
2018-06-27T16:33:59.451Z,2.00
2018-06-27T16:36:28.086Z,1.67
2018-06-27T16:38:56.781Z,1.63
2018-06-27T16:41:26.901Z,2.23
2018-06-27T16:43:55.271Z,1.97
2018-06-27T16:46:25.995Z,2.10
2018-06-27T16:48:54.859Z,2.00
2018-06-27T16:51:24.196Z,2.13
2018-06-27T16:53:53.939Z,1.90
2018-06-27T16:56:22.990Z,2.00
2018-06-27T16:58:53.277Z,1.73
2018-06-27T17:01:22.184Z,1.93
2018-06-27T17:03:50.913Z,2.27
2018-06-27T17:06:19.954Z,1.77
2018-06-27T17:08:48.978Z,2.20
2018-06-27T17:11:17.945Z,2.10
2018-06-27T17:13:46.822Z,2.00
2018-06-27T17:16:15.564Z,1.93
2018-06-27T17:18:44.437Z,2.30
2018-06-27T17:21:13.509Z,1.50
2018-06-27T17:23:42.613Z,1.90
2018-06-27T17:26:11.595Z,3.20
2018-06-27T17:28:40.476Z,2.53
2018-06-27T17:31:10.443Z,3.17
2018-06-27T17:33:39.027Z,1.77
2018-06-27T17:36:08.343Z,2.00
2018-06-27T17:38:37.378Z,2.10
2018-06-27T17:41:06.723Z,2.00
2018-06-27T17:43:36.132Z,1.60
2018-06-27T17:46:06.902Z,1.70
2018-06-27T17:48:35.596Z,2.40
2018-06-27T17:51:04.168Z,1.70
2018-06-27T17:53:32.802Z,2.40
2018-06-27T17:56:01.066Z,2.70
2018-06-27T17:58:30.101Z,2.27
2018-06-27T18:00:58.770Z,3.13
2018-06-27T18:03:27.067Z,1.90
2018-06-27T18:05:57.060Z,2.13
2018-06-27T18:08:25.486Z,1.63
2018-06-27T18:10:55.141Z,2.17
2018-06-27T18:13:24.539Z,2.33
2018-06-27T18:15:52.876Z,2.20
2018-06-27T18:18:21.519Z,1.57
2018-06-27T18:20:50.105Z,1.70
2018-06-27T18:23:19.465Z,1.53
2018-06-27T18:25:48.061Z,2.00
2018-06-27T18:28:16.705Z,2.10
2018-06-27T18:30:46.433Z,2.70
2018-06-27T18:33:15.151Z,3.00
2018-06-27T18:35:43.463Z,1.90
2018-06-27T18:38:12.124Z,1.77
2018-06-27T18:40:40.649Z,1.73
2018-06-27T18:43:09.207Z,3.03
2018-06-27T18:45:43.366Z,2.10
2018-06-27T18:48:11.884Z,3.13
2018-06-27T18:50:40.304Z,2.27
2018-06-27T18:53:08.896Z,2.03
2018-06-27T18:55:37.585Z,2.00
2018-06-27T18:58:07.306Z,1.87
2018-06-27T19:00:35.905Z,1.90
2018-06-27T19:03:04.733Z,2.33
2018-06-27T19:05:33.425Z,3.70
2018-06-27T19:08:02.100Z,3.43
2018-06-27T19:10:30.729Z,2.60
2018-06-27T19:12:59.360Z,3.73
2018-06-27T19:15:27.640Z,2.90
2018-06-27T19:17:56.299Z,6.13
2018-06-27T19:20:25.063Z,10.43
2018-06-27T19:22:53.816Z,9.10
2018-06-27T19:25:22.442Z,4.57
2018-06-27T19:27:51.165Z,7.67
2018-06-27T19:30:20.580Z,3.93
2018-06-27T19:32:50.584Z,2.50
2018-06-27T19:35:20.129Z,3.27
2018-06-27T19:37:52.984Z,3.27
2018-06-27T19:40:23.065Z,3.27
2018-06-27T19:42:51.685Z,3.17
2018-06-27T19:45:20.807Z,4.47
2018-06-27T19:47:50.650Z,3.57
2018-06-27T19:50:20.292Z,3.07
2018-06-27T19:52:48.919Z,3.60
2018-06-27T19:55:18.598Z,3.90
2018-06-27T19:57:48.395Z,8.70
2018-06-27T20:00:18.165Z,4.10
2018-06-27T20:02:47.260Z,3.10
2018-06-27T20:05:16.110Z,3.03
2018-06-27T20:07:44.741Z,3.20
2018-06-27T20:10:13.547Z,4.30
2018-06-27T20:12:42.474Z,3.10
2018-06-27T20:15:11.215Z,3.60
2018-06-27T20:17:39.899Z,3.43
2018-06-27T20:20:08.866Z,4.27
2018-06-27T20:22:37.712Z,3.50
2018-06-27T20:25:06.258Z,6.67
2018-06-27T20:27:34.893Z,4.80
2018-06-27T20:30:03.531Z,7.80
2018-06-27T20:32:32.127Z,6.50
2018-06-27T20:35:00.683Z,3.77
2018-06-27T20:37:29.349Z,6.40
2018-06-27T20:39:57.944Z,3.63
2018-06-27T20:42:26.507Z,4.57
2018-06-27T20:44:55.105Z,3.80
2018-06-27T20:47:23.684Z,3.57
2018-06-27T20:49:52.299Z,4.17
2018-06-27T20:52:20.905Z,4.23
2018-06-27T20:54:49.487Z,3.40
2018-06-27T20:57:18.164Z,3.70
2018-06-27T20:59:48.045Z,2.83
2018-06-27T21:02:17.386Z,3.10
2018-06-27T21:04:46.483Z,2.83
2018-06-27T21:07:15.844Z,3.63
2018-06-27T21:09:44.387Z,3.90
2018-06-27T21:12:12.964Z,3.27
2018-06-27T21:14:41.725Z,2.83
2018-06-27T21:17:10.331Z,4.43
2018-06-27T21:19:39.008Z,2.80
2018-06-27T21:22:07.624Z,3.23
2018-06-27T21:24:35.942Z,3.30
2018-06-27T21:27:06.585Z,4.40
2018-06-27T21:29:35.241Z,3.30
2018-06-27T21:32:03.847Z,2.90
2018-06-27T21:34:32.184Z,4.00
2018-06-27T21:37:00.826Z,8.73
2018-06-27T21:39:29.426Z,4.17
2018-06-27T21:41:58.038Z,4.00
2018-06-27T21:44:26.613Z,6.87
2018-06-27T21:46:55.210Z,4.63
2018-06-27T21:49:23.816Z,10.73
2018-06-27T21:51:52.280Z,7.30
2018-06-27T21:54:20.855Z,5.53
2018-06-27T21:56:51.503Z,3.40
2018-06-27T21:59:20.296Z,4.03
2018-06-27T22:01:48.945Z,3.87
2018-06-27T22:04:18.322Z,9.10
2018-06-27T22:06:48.251Z,3.83
2018-06-27T22:09:18.297Z,3.27
2018-06-27T22:11:47.646Z,3.73
2018-06-27T22:14:16.835Z,3.77
2018-06-27T22:16:46.110Z,3.90
2018-06-27T22:19:14.755Z,3.70
2018-06-27T22:21:43.387Z,6.80
2018-06-27T22:24:11.979Z,4.07
2018-06-27T22:26:40.601Z,6.27
2018-06-27T22:29:09.194Z,5.13
2018-06-27T22:31:37.861Z,3.87
2018-06-27T22:34:06.469Z,4.67
2018-06-27T22:36:35.123Z,4.17
2018-06-27T22:39:05.743Z,4.33
2018-06-27T22:41:34.474Z,4.67
2018-06-27T22:44:03.237Z,4.33
2018-06-27T22:46:31.876Z,4.77
2018-06-27T22:49:00.458Z,3.50
2018-06-27T22:51:29.099Z,5.87
2018-06-27T22:53:57.688Z,5.10
2018-06-27T22:56:26.325Z,3.63
2018-06-27T22:58:54.912Z,5.07
2018-06-27T23:01:23.555Z,4.00
2018-06-27T23:03:52.148Z,3.93
2018-06-27T23:06:20.733Z,3.40
2018-06-27T23:08:49.335Z,6.63
2018-06-27T23:11:17.641Z,4.07
2018-06-27T23:13:46.304Z,4.13
2018-06-27T23:16:15.354Z,3.93
2018-06-27T23:18:44.032Z,3.70
2018-06-27T23:21:12.627Z,3.60
2018-06-27T23:23:41.286Z,3.70
2018-06-27T23:26:09.885Z,4.33
2018-06-27T23:28:38.467Z,3.77
2018-06-27T23:31:07.053Z,3.43
2018-06-27T23:33:36.761Z,3.50
2018-06-27T23:36:05.652Z,3.53
2018-06-27T23:38:34.249Z,5.33
2018-06-27T23:41:02.805Z,4.23
2018-06-27T23:43:31.388Z,5.80
2018-06-27T23:45:59.947Z,3.90
2018-06-27T23:48:28.539Z,8.97
2018-06-27T23:50:57.092Z,6.60
2018-06-27T23:53:25.399Z,3.47
2018-06-27T23:55:53.966Z,3.27
2018-06-27T23:58:22.584Z,3.10
